Time;durP1;ratioP1;P1;durP2;ratioP2;P2;SDS_P1;SDS_P2;PMS_P1;PMS_P2;Temp;Humidity;BMP_temperature;BMP_pressure;BME280_temperature;BME280_humidity;BME280_pressure;Samples;Min_cycle;Max_cycle;Signal;HPM_P1;HPM_P2
2023/11/11 00:01:29;;;;;;;0.10;0.10;;;9.10;99.90;;;;;;5038386;28;20777;-77
2023/11/11 00:03:54;;;;;;;0.10;0.10;;;9.10;99.90;;;;;;5039299;28;20037;-77
2023/11/11 00:06:20;;;;;;;0.10;0.10;;;9.10;99.90;;;;;;5038388;28;20025;-77
2023/11/11 00:08:46;;;;;;;0.10;0.10;;;9.10;99.90;;;;;;5047912;28;20024;-77
2023/11/11 00:11:11;;;;;;;0.10;0.10;;;9.00;99.90;;;;;;5048442;28;20168;-77
2023/11/11 00:13:37;;;;;;;0.10;0.10;;;8.90;99.90;;;;;;5043494;28;20029;-78
2023/11/11 00:16:03;;;;;;;0.10;0.10;;;9.00;99.90;;;;;;5050021;28;20081;-77
2023/11/11 00:18:28;;;;;;;0.10;0.10;;;9.00;99.90;;;;;;5043094;28;20057;-78
2023/11/11 00:20:56;;;;;;;0.10;0.10;;;9.00;99.90;;;;;;5050023;28;20040;-77
2023/11/11 00:23:21;;;;;;;0.30;0.30;;;9.00;99.90;;;;;;5045076;28;20021;-77
2023/11/11 00:25:47;;;;;;;0.10;0.10;;;9.00;99.90;;;;;;5048698;28;20483;-77
2023/11/11 00:28:14;;;;;;;0.07;0.07;;;8.90;99.90;;;;;;5038177;28;20048;-77
2023/11/11 00:30:39;;;;;;;0.10;0.10;;;9.00;99.90;;;;;;5045807;28;20039;-77
2023/11/11 00:33:05;;;;;;;0.70;0.70;;;9.00;99.90;;;;;;5047920;28;20041;-77
2023/11/11 00:35:30;;;;;;;0.10;0.10;;;9.00;99.90;;;;;;5048977;28;20068;-77
2023/11/11 00:37:56;;;;;;;0.10;0.10;;;9.00;99.90;;;;;;5048442;28;20536;-77
2023/11/11 00:40:22;;;;;;;0.22;0.22;;;9.00;99.90;;;;;;5040526;28;20028;-77
2023/11/11 00:42:47;;;;;;;0.00;0.00;;;9.00;99.90;;;;;;5049368;28;20064;-77
2023/11/11 00:45:13;;;;;;;0.00;0.00;;;8.90;99.90;;;;;;5047591;28;20021;-77
2023/11/11 00:47:39;;;;;;;0.10;0.10;;;8.90;99.90;;;;;;5039742;28;20036;-77
2023/11/11 00:50:06;;;;;;;0.20;0.20;;;8.80;99.90;;;;;;5039008;28;20068;-77
2023/11/11 00:52:33;;;;;;;0.10;0.10;;;8.80;99.90;;;;;;5052978;28;20029;-77
2023/11/11 00:55:00;;;;;;;0.03;0.03;;;8.70;99.90;;;;;;5049597;28;20137;-77
2023/11/11 00:57:25;;;;;;;0.10;0.10;;;8.70;99.90;;;;;;5049732;28;20032;-78
2023/11/11 00:59:51;;;;;;;0.10;0.10;;;8.70;99.90;;;;;;5047890;28;20411;-77
2023/11/11 01:02:16;;;;;;;0.10;0.10;;;8.80;99.90;;;;;;5034491;28;20033;-77
2023/11/11 01:04:42;;;;;;;0.10;0.10;;;8.90;99.90;;;;;;5040400;28;20086;-77
2023/11/11 01:07:08;;;;;;;0.10;0.10;;;8.80;99.90;;;;;;5049470;28;20407;-78
2023/11/11 01:09:33;;;;;;;0.10;0.10;;;8.70;99.90;;;;;;5043576;28;20093;-77
2023/11/11 01:11:59;;;;;;;0.10;0.10;;;8.80;99.90;;;;;;5041911;28;20033;-78
2023/11/11 01:14:25;;;;;;;0.15;0.15;;;8.90;99.90;;;;;;5049665;28;20036;-78
2023/11/11 01:16:50;;;;;;;0.00;0.00;;;8.90;99.90;;;;;;5040110;28;20025;-78
2023/11/11 01:19:16;;;;;;;0.10;0.10;;;8.90;99.90;;;;;;5051043;28;20033;-78
2023/11/11 01:21:42;;;;;;;0.10;0.10;;;8.90;99.90;;;;;;5049183;28;20073;-78
2023/11/11 01:24:08;;;;;;;0.10;0.10;;;8.90;99.90;;;;;;5047115;28;20029;-78
2023/11/11 01:26:33;;;;;;;0.17;0.17;;;8.90;99.90;;;;;;5034963;28;20132;-78
2023/11/11 01:28:59;;;;;;;0.10;0.10;;;8.90;99.90;;;;;;5046959;28;20097;-78
2023/11/11 01:31:25;;;;;;;0.10;0.10;;;8.90;99.90;;;;;;5047177;28;20756;-77
2023/11/11 01:33:50;;;;;;;0.00;0.00;;;8.90;99.90;;;;;;5044683;28;20680;-78
2023/11/11 01:36:16;;;;;;;0.08;0.08;;;8.90;99.90;;;;;;5044567;28;20207;-77
2023/11/11 01:38:41;;;;;;;0.40;0.40;;;8.80;99.90;;;;;;5044146;28;20522;-77
2023/11/11 01:41:07;;;;;;;0.00;0.00;;;8.80;99.90;;;;;;5034359;28;20053;-77
2023/11/11 01:43:33;;;;;;;0.00;0.00;;;8.70;99.90;;;;;;5045575;28;20027;-77
2023/11/11 01:46:01;;;;;;;0.10;0.10;;;8.70;99.90;;;;;;5038124;28;20700;-77
2023/11/11 01:48:28;;;;;;;0.10;0.10;;;8.70;99.90;;;;;;5045859;28;20024;-77
2023/11/11 01:50:55;;;;;;;0.10;0.10;;;8.70;99.90;;;;;;5051378;28;20030;-77
2023/11/11 01:53:21;;;;;;;;;;;8.70;99.90;;;;;;5049545;28;20040;-77
2023/11/11 01:55:47;;;;;;;0.10;0.10;;;8.70;99.90;;;;;;5040024;28;19917;-77
2023/11/11 01:58:17;;;;;;;0.10;0.10;;;8.80;99.90;;;;;;5046613;28;20641;-77
2023/11/11 02:00:43;;;;;;;0.10;0.10;;;8.90;99.90;;;;;;5041385;28;20147;-77
2023/11/11 02:03:09;;;;;;;0.10;0.10;;;8.90;99.90;;;;;;5039827;28;20025;-77
2023/11/11 02:05:36;;;;;;;0.10;0.10;;;8.90;99.90;;;;;;5041206;28;20485;-77
2023/11/11 02:08:05;;;;;;;0.03;0.03;;;8.90;99.90;;;;;;5046368;28;20025;-77
2023/11/11 02:10:32;;;;;;;0.10;0.10;;;8.90;99.90;;;;;;5048497;28;20116;-77
2023/11/11 02:12:59;;;;;;;0.10;0.10;;;8.90;99.90;;;;;;5047499;28;20021;-76
2023/11/11 02:15:26;;;;;;;0.10;0.10;;;8.80;99.90;;;;;;5048772;28;20491;-77
2023/11/11 02:18:10;;;;;;;0.08;0.08;;;8.80;99.90;;;;;;5039226;28;20029;-77
2023/11/11 02:20:35;;;;;;;0.10;0.10;;;8.80;99.90;;;;;;5045110;28;20177;-77
2023/11/11 02:23:02;;;;;;;0.10;0.10;;;8.90;99.90;;;;;;5039681;28;20033;-77
2023/11/11 02:25:28;;;;;;;0.00;0.00;;;8.90;99.90;;;;;;5042925;28;20029;-77
2023/11/11 02:27:54;;;;;;;0.10;0.10;;;8.90;99.90;;;;;;5047438;28;20037;-77
2023/11/11 02:30:20;;;;;;;0.10;0.10;;;8.90;99.90;;;;;;5042474;28;20061;-77
2023/11/11 02:32:45;;;;;;;0.10;0.10;;;8.90;99.90;;;;;;5045226;28;20032;-76
2023/11/11 02:35:11;;;;;;;0.10;0.10;;;9.00;99.90;;;;;;5044443;28;20111;-77
2023/11/11 02:37:37;;;;;;;0.03;0.03;;;9.00;99.90;;;;;;5041086;28;20033;-77
2023/11/11 02:40:03;;;;;;;0.10;0.10;;;9.00;99.90;;;;;;5046699;28;20035;-76
2023/11/11 02:42:28;;;;;;;0.10;0.10;;;9.00;99.90;;;;;;5047611;28;20610;-77
2023/11/11 02:44:54;;;;;;;0.10;0.10;;;9.00;99.90;;;;;;5036188;28;20045;-77
2023/11/11 02:47:20;;;;;;;0.00;0.00;;;9.10;99.90;;;;;;5042797;28;20296;-77
2023/11/11 02:49:45;;;;;;;0.10;0.10;;;9.00;99.90;;;;;;5034750;28;20037;-78
2023/11/11 02:52:11;;;;;;;0.10;0.10;;;9.10;99.90;;;;;;5033906;28;20037;-77
2023/11/11 02:54:37;;;;;;;0.10;0.10;;;9.10;99.90;;;;;;5046307;28;20093;-78
2023/11/11 02:57:03;;;;;;;0.10;0.10;;;9.10;99.90;;;;;;5047335;28;21301;-78
2023/11/11 02:59:29;;;;;;;0.10;0.10;;;9.10;99.90;;;;;;5047614;28;20037;-77
2023/11/11 03:01:54;;;;;;;0.10;0.10;;;9.10;99.90;;;;;;5041708;28;20025;-77
2023/11/11 03:04:21;;;;;;;0.10;0.10;;;9.00;99.90;;;;;;5042771;28;20522;-78
2023/11/11 03:06:47;;;;;;;0.05;0.05;;;9.10;99.90;;;;;;5045514;28;20037;-78
2023/11/11 03:09:12;;;;;;;0.10;0.10;;;9.10;99.90;;;;;;5041344;28;20166;-78
2023/11/11 03:11:39;;;;;;;0.10;0.10;;;9.10;99.90;;;;;;5043821;28;20551;-78
2023/11/11 03:14:05;;;;;;;0.10;0.10;;;9.10;99.90;;;;;;5044975;28;20041;-78
2023/11/11 03:16:38;;;;;;;0.10;0.10;;;9.10;99.90;;;;;;5042625;28;20171;-78
2023/11/11 03:19:04;;;;;;;0.03;0.03;;;9.10;99.90;;;;;;5045535;28;20025;-78
2023/11/11 03:21:30;;;;;;;0.10;0.10;;;9.00;99.90;;;;;;5047176;28;20028;-77
2023/11/11 03:23:56;;;;;;;0.03;0.03;;;8.90;99.90;;;;;;5044104;28;20577;-77
2023/11/11 03:26:24;;;;;;;0.10;0.10;;;9.00;99.90;;;;;;5047240;28;20147;-78
2023/11/11 03:28:51;;;;;;;0.10;0.10;;;9.00;99.90;;;;;;5045393;28;20029;-78
2023/11/11 03:31:17;;;;;;;0.10;0.10;;;8.90;99.90;;;;;;5045044;28;20048;-78
2023/11/11 03:33:43;;;;;;;0.00;0.00;;;8.80;99.90;;;;;;5043372;28;20029;-77
2023/11/11 03:36:09;;;;;;;0.10;0.10;;;8.80;99.90;;;;;;5048452;28;20167;-77
2023/11/11 03:38:34;;;;;;;0.10;0.10;;;8.80;99.90;;;;;;5040117;28;20107;-77
2023/11/11 03:41:00;;;;;;;0.10;0.10;;;8.80;99.90;;;;;;5039470;28;20401;-78
2023/11/11 03:43:26;;;;;;;2.95;2.75;;;8.80;99.90;;;;;;5041244;28;20040;-78
2023/11/11 03:45:51;;;;;;;0.10;0.10;;;8.80;99.90;;;;;;5048554;28;20108;-77
2023/11/11 03:48:17;;;;;;;0.32;0.32;;;8.70;99.90;;;;;;5041482;28;20145;-77
2023/11/11 03:50:43;;;;;;;0.10;0.10;;;8.70;99.90;;;;;;5050875;28;20029;-76
2023/11/11 03:53:08;;;;;;;0.10;0.10;;;8.80;99.90;;;;;;5047549;28;20029;-77
2023/11/11 03:55:34;;;;;;;2.50;1.85;;;8.90;99.90;;;;;;5050201;28;20033;-77
2023/11/11 03:58:00;;;;;;;0.10;0.10;;;8.90;99.90;;;;;;5049126;28;20868;-78
2023/11/11 04:00:26;;;;;;;0.10;0.10;;;8.90;99.90;;;;;;5050639;28;20526;-77
2023/11/11 04:02:53;;;;;;;3.83;1.67;;;8.90;99.90;;;;;;5048221;28;20521;-78
2023/11/11 04:05:20;;;;;;;0.10;0.10;;;8.90;99.90;;;;;;5045085;28;20033;-78
2023/11/11 04:07:46;;;;;;;;;;;8.80;99.90;;;;;;5049752;28;20037;-79
2023/11/11 04:10:13;;;;;;;0.10;0.10;;;8.80;99.90;;;;;;5049043;28;20514;-80
2023/11/11 04:12:39;;;;;;;0.10;0.10;;;8.80;99.90;;;;;;5050737;28;20057;-77
2023/11/11 04:15:06;;;;;;;0.10;0.10;;;8.80;99.90;;;;;;5050484;28;20043;-77
2023/11/11 04:17:31;;;;;;;0.10;0.10;;;8.80;99.90;;;;;;5042970;28;20083;-77
2023/11/11 04:19:57;;;;;;;0.10;0.10;;;8.90;99.90;;;;;;5045857;28;20570;-77
2023/11/11 04:22:23;;;;;;;0.10;0.10;;;8.80;99.90;;;;;;5040884;28;20752;-78
2023/11/11 04:24:49;;;;;;;0.10;0.10;;;8.70;99.90;;;;;;5048817;28;20532;-78
2023/11/11 04:27:14;;;;;;;0.10;0.10;;;8.60;99.90;;;;;;5043908;28;20037;-78
2023/11/11 04:29:40;;;;;;;0.10;0.10;;;8.50;99.90;;;;;;5048693;28;20085;-78
2023/11/11 04:32:07;;;;;;;0.10;0.10;;;8.50;99.90;;;;;;5048515;28;20037;-77
2023/11/11 04:34:33;;;;;;;0.10;0.10;;;8.60;99.90;;;;;;5050914;28;20043;-77
2023/11/11 04:36:59;;;;;;;0.10;0.10;;;8.60;99.90;;;;;;5047293;28;20029;-77
2023/11/11 04:39:25;;;;;;;0.00;0.00;;;8.60;99.90;;;;;;5040408;28;20506;-77
2023/11/11 04:41:51;;;;;;;0.10;0.10;;;8.50;99.90;;;;;;5049606;28;20094;-77
2023/11/11 04:44:17;;;;;;;0.10;0.10;;;8.40;99.90;;;;;;5043902;28;20038;-77
2023/11/11 04:46:42;;;;;;;0.10;0.10;;;8.40;99.90;;;;;;5040620;28;20039;-77
2023/11/11 04:49:09;;;;;;;0.10;0.10;;;8.30;99.90;;;;;;5047961;28;20396;-77
2023/11/11 04:51:35;;;;;;;0.10;0.10;;;8.20;99.90;;;;;;5045793;28;20400;-77
2023/11/11 04:54:01;;;;;;;0.10;0.10;;;8.20;99.90;;;;;;5048429;28;20048;-77
2023/11/11 04:56:26;;;;;;;0.10;0.10;;;8.20;99.90;;;;;;5049585;28;20530;-77
2023/11/11 04:58:52;;;;;;;0.17;0.17;;;8.10;99.90;;;;;;5045906;28;20036;-77
2023/11/11 05:01:20;;;;;;;0.10;0.10;;;8.00;99.90;;;;;;5035713;28;20113;-77
2023/11/11 05:03:46;;;;;;;0.10;0.10;;;8.00;99.90;;;;;;5047362;28;20051;-78
2023/11/11 05:06:12;;;;;;;0.10;0.10;;;8.00;99.90;;;;;;5049233;28;20112;-77
2023/11/11 05:08:38;;;;;;;0.10;0.10;;;8.00;99.90;;;;;;5040751;28;20057;-77
2023/11/11 05:11:04;;;;;;;0.10;0.10;;;7.90;99.90;;;;;;5041389;28;20037;-77
2023/11/11 05:13:31;;;;;;;0.10;0.10;;;7.90;99.90;;;;;;5048471;28;20711;-77
2023/11/11 05:16:10;;;;;;;0.10;0.10;;;7.80;99.90;;;;;;5046651;28;20044;-78
2023/11/11 05:18:36;;;;;;;0.10;0.10;;;7.90;99.90;;;;;;5046023;28;20477;-77
2023/11/11 05:21:02;;;;;;;0.10;0.10;;;7.80;99.90;;;;;;5046060;28;20843;-76
2023/11/11 05:23:28;;;;;;;0.10;0.10;;;7.80;99.90;;;;;;5036163;28;20124;-77
2023/11/11 05:25:54;;;;;;;0.10;0.10;;;7.70;99.90;;;;;;5051832;28;20877;-78
2023/11/11 05:28:20;;;;;;;0.10;0.10;;;7.70;99.90;;;;;;5049953;28;20033;-79
2023/11/11 05:30:45;;;;;;;0.30;0.30;;;7.80;99.90;;;;;;5040975;28;20041;-78
2023/11/11 05:33:12;;;;;;;0.10;0.10;;;7.80;99.90;;;;;;5043710;28;20025;-77
2023/11/11 05:35:37;;;;;;;0.10;0.10;;;7.80;99.90;;;;;;5044530;28;20028;-77
2023/11/11 05:38:04;;;;;;;0.10;0.10;;;7.70;99.90;;;;;;5048179;28;20032;-78
2023/11/11 05:40:30;;;;;;;0.10;0.10;;;7.70;99.90;;;;;;5045199;28;20064;-75
2023/11/11 05:42:56;;;;;;;0.10;0.10;;;7.80;99.90;;;;;;5047233;28;20130;-78
2023/11/11 05:45:22;;;;;;;0.10;0.10;;;7.80;99.90;;;;;;5046197;28;20036;-76
2023/11/11 05:47:47;;;;;;;0.10;0.10;;;7.90;99.90;;;;;;5048244;28;20032;-77
2023/11/11 05:50:13;;;;;;;0.10;0.10;;;8.00;99.90;;;;;;5047257;28;20059;-76
2023/11/11 05:52:39;;;;;;;0.10;0.10;;;8.10;99.90;;;;;;5047020;28;20035;-75
2023/11/11 05:55:08;;;;;;;0.10;0.10;;;8.10;99.90;;;;;;5048200;28;20062;-75
2023/11/11 05:57:35;;;;;;;0.00;0.00;;;8.00;99.90;;;;;;5040098;28;20040;-75
2023/11/11 06:00:03;;;;;;;0.10;0.10;;;7.80;99.90;;;;;;5044492;28;20029;-75
2023/11/11 06:02:28;;;;;;;0.15;0.15;;;7.70;99.90;;;;;;5039399;28;20091;-77
2023/11/11 06:04:54;;;;;;;0.10;0.10;;;7.80;99.90;;;;;;5046153;28;20024;-75
2023/11/11 06:07:20;;;;;;;0.10;0.10;;;7.90;99.90;;;;;;5044065;28;20086;-75
2023/11/11 06:09:46;;;;;;;0.03;0.03;;;7.90;99.90;;;;;;5044986;28;20519;-75
2023/11/11 06:12:13;;;;;;;0.10;0.10;;;8.00;99.90;;;;;;5046104;28;20276;-75
2023/11/11 06:14:38;;;;;;;0.10;0.10;;;7.90;99.90;;;;;;5046658;28;20063;-75
2023/11/11 06:17:04;;;;;;;0.10;0.10;;;7.70;99.90;;;;;;5047759;28;20779;-75
2023/11/11 06:19:30;;;;;;;0.10;0.10;;;7.70;99.90;;;;;;5043100;28;20034;-75
2023/11/11 06:21:56;;;;;;;2.88;2.72;;;7.80;99.90;;;;;;5043879;28;20079;-75
2023/11/11 06:24:21;;;;;;;0.10;0.10;;;7.90;99.90;;;;;;5050912;28;20033;-75
2023/11/11 06:26:47;;;;;;;0.10;0.10;;;8.10;99.90;;;;;;5041624;28;20029;-75
2023/11/11 06:29:12;;;;;;;0.10;0.10;;;7.90;99.90;;;;;;5047952;28;20115;-75
2023/11/11 06:31:38;;;;;;;0.10;0.10;;;7.70;99.90;;;;;;5043493;28;20492;-75
2023/11/11 06:34:04;;;;;;;0.10;0.10;;;7.80;99.90;;;;;;5045613;28;20037;-75
2023/11/11 06:36:30;;;;;;;0.10;0.10;;;7.90;99.90;;;;;;5045380;28;20029;-75
2023/11/11 06:38:56;;;;;;;0.10;0.10;;;8.10;99.90;;;;;;5044122;28;20044;-75
2023/11/11 06:41:22;;;;;;;0.10;0.10;;;8.20;99.90;;;;;;5046803;28;20044;-75
2023/11/11 06:43:48;;;;;;;0.10;0.10;;;8.30;99.90;;;;;;5038536;28;20040;-75
2023/11/11 06:46:14;;;;;;;0.05;0.05;;;8.30;99.90;;;;;;5046422;28;20033;-75
2023/11/11 06:48:39;;;;;;;0.10;0.10;;;8.30;99.90;;;;;;5042467;28;20495;-75
2023/11/11 06:51:05;;;;;;;0.10;0.10;;;8.10;99.90;;;;;;5045009;28;20037;-76
2023/11/11 06:53:31;;;;;;;0.10;0.10;;;8.00;99.90;;;;;;5041703;28;20033;-75
2023/11/11 06:55:56;;;;;;;0.10;0.10;;;7.90;99.90;;;;;;5047998;28;20115;-75
2023/11/11 06:58:22;;;;;;;0.10;0.10;;;8.00;99.90;;;;;;5047624;28;20039;-75
2023/11/11 07:00:48;;;;;;;0.10;0.10;;;8.20;99.90;;;;;;5047869;28;20032;-74
2023/11/11 07:03:13;;;;;;;0.10;0.10;;;8.30;99.90;;;;;;5047391;28;20527;-75
2023/11/11 07:05:39;;;;;;;0.20;0.20;;;8.40;99.90;;;;;;5055932;28;20118;-75
2023/11/11 07:08:05;;;;;;;0.10;0.10;;;8.50;99.90;;;;;;5056135;28;20013;-76
2023/11/11 07:10:34;;;;;;;0.10;0.10;;;8.40;99.90;;;;;;5043806;28;20174;-75
2023/11/11 07:13:00;;;;;;;0.00;0.00;;;8.20;99.90;;;;;;5048613;28;20960;-75
2023/11/11 07:15:27;;;;;;;0.10;0.10;;;8.30;99.90;;;;;;5045191;28;20029;-75
2023/11/11 07:17:53;;;;;;;0.10;0.10;;;8.30;99.90;;;;;;5044098;28;20029;-76
2023/11/11 07:20:21;;;;;;;0.10;0.10;;;8.30;99.90;;;;;;5046070;28;20031;-76
2023/11/11 07:22:51;;;;;;;0.10;0.10;;;8.20;99.90;;;;;;5044783;28;20037;-76
2023/11/11 07:25:18;;;;;;;0.10;0.10;;;8.20;99.90;;;;;;5045542;28;20029;-75
2023/11/11 07:27:43;;;;;;;;;;;8.10;99.90;;;;;;5045307;28;20120;-75
2023/11/11 07:30:10;;;;;;;0.10;0.10;;;8.10;99.90;;;;;;5042751;28;20012;-76
2023/11/11 07:32:36;;;;;;;;;;;8.20;99.90;;;;;;5044167;28;20029;-76
2023/11/11 07:35:02;;;;;;;0.10;0.10;;;8.30;99.90;;;;;;5044565;28;19905;-75
2023/11/11 07:37:28;;;;;;;0.10;0.10;;;8.40;99.90;;;;;;5041969;28;20049;-75
2023/11/11 07:39:55;;;;;;;0.10;0.10;;;8.30;99.90;;;;;;5036906;28;20024;-75
2023/11/11 07:42:21;;;;;;;;;;;8.30;99.90;;;;;;5030722;28;20571;-75
2023/11/11 07:44:47;;;;;;;0.10;0.10;;;8.30;99.90;;;;;;5029066;28;19984;-76
2023/11/11 07:47:15;;;;;;;0.10;0.10;;;8.50;99.90;;;;;;5045059;28;20124;-76
2023/11/11 07:49:43;;;;;;;0.10;0.10;;;8.90;99.90;;;;;;5038327;28;20087;-75
2023/11/11 07:52:09;;;;;;;0.10;0.10;;;9.30;99.90;;;;;;5040689;28;20029;-76
2023/11/11 07:54:35;;;;;;;0.10;0.10;;;9.50;99.90;;;;;;5038985;28;20570;-75
2023/11/11 07:57:03;;;;;;;0.13;0.13;;;9.50;99.90;;;;;;5035270;28;20108;-75
2023/11/11 07:59:29;;;;;;;0.10;0.10;;;9.60;99.90;;;;;;5039507;28;20040;-76
2023/11/11 08:01:56;;;;;;;0.10;0.10;;;9.70;99.90;;;;;;5039134;28;20745;-76
2023/11/11 08:04:21;;;;;;;0.10;0.10;;;9.60;99.90;;;;;;5038382;28;20267;-76
2023/11/11 08:06:47;;;;;;;0.10;0.10;;;9.70;99.90;;;;;;5045372;28;20036;-76
2023/11/11 08:09:14;;;;;;;0.10;0.10;;;9.70;99.90;;;;;;5038038;28;20026;-76
2023/11/11 08:11:42;;;;;;;0.10;0.10;;;9.70;99.90;;;;;;5046724;28;20023;-76
2023/11/11 08:14:10;;;;;;;0.30;0.30;;;9.80;99.90;;;;;;5046083;28;20044;-75
2023/11/11 08:16:36;;;;;;;0.00;0.00;;;9.90;99.90;;;;;;5049917;28;20040;-76
2023/11/11 08:19:01;;;;;;;0.43;0.43;;;10.00;99.90;;;;;;5055166;28;20029;-76
2023/11/11 08:21:31;;;;;;;0.07;0.07;;;10.00;99.90;;;;;;5042157;28;20060;-75
2023/11/11 08:23:59;;;;;;;0.10;0.10;;;9.90;99.90;;;;;;5035785;28;20023;-75
2023/11/11 08:26:25;;;;;;;0.10;0.10;;;9.80;99.90;;;;;;5037194;28;20025;-76
2023/11/11 08:28:52;;;;;;;0.08;0.08;;;9.70;99.90;;;;;;5036962;28;20037;-75
2023/11/11 08:31:18;;;;;;;0.03;0.03;;;9.90;99.90;;;;;;5046412;28;20025;-75
2023/11/11 08:33:44;;;;;;;0.10;0.10;;;10.00;99.90;;;;;;5041693;28;20785;-74
2023/11/11 08:36:10;;;;;;;0.10;0.10;;;10.10;99.90;;;;;;5069061;28;20356;-75
2023/11/11 08:38:36;;;;;;;0.10;0.10;;;10.00;99.90;;;;;;5067943;28;20115;-75
2023/11/11 08:41:02;;;;;;;0.10;0.10;;;9.90;99.90;;;;;;5056302;28;20585;-75
2023/11/11 08:43:28;;;;;;;0.03;0.03;;;9.90;99.90;;;;;;5058537;28;20769;-76
2023/11/11 08:45:55;;;;;;;0.10;0.10;;;9.60;99.90;;;;;;5049994;28;20498;-76
2023/11/11 08:48:24;;;;;;;0.00;0.00;;;9.70;99.90;;;;;;5058413;28;20594;-76
2023/11/11 08:50:50;;;;;;;0.10;0.10;;;9.90;99.90;;;;;;5062877;28;20148;-76
2023/11/11 08:53:16;;;;;;;0.00;0.00;;;10.00;99.90;;;;;;5062331;28;20076;-76
2023/11/11 08:55:41;;;;;;;0.00;0.00;;;10.00;99.90;;;;;;5061757;28;20025;-76
2023/11/11 08:58:07;;;;;;;0.10;0.10;;;10.10;99.90;;;;;;5050074;28;20033;-76
2023/11/11 09:00:36;;;;;;;0.00;0.00;;;10.40;99.90;;;;;;5049253;28;20033;-76
2023/11/11 09:03:04;;;;;;;0.10;0.10;;;10.40;99.90;;;;;;5058400;28;20108;-76
2023/11/11 09:05:30;;;;;;;0.10;0.10;;;10.20;99.90;;;;;;5058323;28;20017;-76
2023/11/11 09:07:56;;;;;;;0.10;0.10;;;10.00;99.90;;;;;;5056179;28;20060;-76
2023/11/11 09:10:21;;;;;;;1.40;1.33;;;10.10;99.90;;;;;;5048581;28;20059;-76
2023/11/11 09:12:48;;;;;;;0.10;0.10;;;10.40;99.90;;;;;;5050116;28;20029;-76
2023/11/11 09:15:16;;;;;;;0.00;0.00;;;10.60;99.90;;;;;;5057095;28;20075;-76
2023/11/11 09:17:43;;;;;;;0.10;0.10;;;10.50;99.90;;;;;;5041493;28;20033;-76
2023/11/11 09:20:09;;;;;;;4.35;3.72;;;10.70;99.90;;;;;;5048239;28;20032;-75
2023/11/11 09:22:36;;;;;;;0.10;0.10;;;10.80;99.90;;;;;;5047996;28;20025;-76
2023/11/11 09:25:06;;;;;;;0.00;0.00;;;10.70;99.90;;;;;;5049466;28;20017;-76
2023/11/11 09:27:34;;;;;;;0.08;0.08;;;10.60;99.90;;;;;;5049649;28;20063;-76
2023/11/11 09:30:00;;;;;;;0.10;0.10;;;10.80;99.90;;;;;;5047903;28;20515;-76
2023/11/11 09:32:26;;;;;;;0.10;0.10;;;10.80;99.90;;;;;;5048891;28;20079;-76
2023/11/11 09:34:52;;;;;;;0.10;0.10;;;11.00;99.90;;;;;;5045929;28;20029;-76
2023/11/11 09:37:18;;;;;;;0.10;0.10;;;11.10;99.90;;;;;;5048992;28;20118;-76
2023/11/11 09:39:44;;;;;;;0.10;0.10;;;11.30;99.90;;;;;;5049989;28;20021;-76
2023/11/11 09:42:09;;;;;;;0.67;0.67;;;11.40;99.90;;;;;;5048777;28;20049;-76
2023/11/11 09:44:35;;;;;;;0.10;0.10;;;11.40;99.90;;;;;;5049219;28;20576;-76
2023/11/11 09:47:02;;;;;;;0.10;0.10;;;11.70;99.90;;;;;;5047880;28;20033;-76
2023/11/11 09:49:30;;;;;;;0.10;0.10;;;12.00;99.90;;;;;;5047065;28;20029;-76
2023/11/11 09:51:57;;;;;;;0.03;0.03;;;11.40;99.90;;;;;;5041971;28;20034;-76
2023/11/11 09:54:23;;;;;;;0.00;0.00;;;11.40;99.90;;;;;;5048955;28;20025;-76
2023/11/11 09:56:50;;;;;;;0.10;0.10;;;11.70;99.90;;;;;;5048648;28;20411;-75
2023/11/11 09:59:16;;;;;;;0.00;0.00;;;12.00;99.90;;;;;;5045110;28;20029;-76
2023/11/11 10:01:44;;;;;;;0.10;0.10;;;12.10;99.90;;;;;;5032080;28;20021;-76
2023/11/11 10:04:10;;;;;;;0.00;0.00;;;12.10;99.90;;;;;;5047277;28;20041;-76
2023/11/11 10:06:39;;;;;;;0.10;0.10;;;12.30;99.90;;;;;;5038800;28;20852;-76
2023/11/11 10:09:08;;;;;;;0.38;0.38;;;11.80;99.90;;;;;;5045480;28;20729;-76
2023/11/11 10:11:37;;;;;;;0.10;0.10;;;11.50;99.90;;;;;;5036624;28;20033;-76
2023/11/11 10:14:03;;;;;;;0.00;0.00;;;11.30;99.90;;;;;;5048550;28;20033;-75
2023/11/11 10:16:29;;;;;;;0.00;0.00;;;11.10;99.90;;;;;;5046662;28;20029;-75
2023/11/11 10:18:58;;;;;;;0.37;0.37;;;11.10;99.90;;;;;;5046530;28;20031;-75
2023/11/11 10:21:26;;;;;;;0.10;0.10;;;11.80;99.90;;;;;;5048323;28;20017;-76
2023/11/11 10:23:54;;;;;;;0.10;0.10;;;12.40;99.90;;;;;;5047966;28;20037;-75
2023/11/11 10:26:20;;;;;;;0.10;0.10;;;12.80;99.90;;;;;;5046445;28;20032;-75
2023/11/11 10:28:50;;;;;;;0.03;0.03;;;13.00;99.90;;;;;;5046079;28;20112;-75
2023/11/11 10:31:18;;;;;;;0.00;0.00;;;12.60;99.90;;;;;;5043572;28;20037;-76
2023/11/11 10:33:44;;;;;;;0.00;0.00;;;12.40;99.90;;;;;;5049108;28;20026;-75
2023/11/11 10:36:11;;;;;;;0.10;0.10;;;12.20;99.90;;;;;;5065237;28;20126;-76
2023/11/11 10:38:39;;;;;;;0.10;0.10;;;12.50;99.90;;;;;;5065112;28;20036;-75
2023/11/11 10:41:06;;;;;;;0.10;0.10;;;12.40;99.90;;;;;;5053625;28;20045;-76
2023/11/11 10:43:33;;;;;;;0.52;0.52;;;12.60;99.90;;;;;;5055451;28;20112;-76
2023/11/11 10:46:00;;;;;;;0.00;0.00;;;12.60;99.90;;;;;;5057225;28;20142;-76
2023/11/11 10:48:27;;;;;;;0.25;0.25;;;12.60;99.90;;;;;;5055675;28;20045;-75
2023/11/11 10:50:53;;;;;;;0.00;0.00;;;12.30;99.90;;;;;;5049533;28;20086;-76
2023/11/11 10:53:19;;;;;;;0.13;0.13;;;12.30;99.90;;;;;;5048546;28;20526;-75
2023/11/11 10:55:49;;;;;;;0.10;0.10;;;12.20;99.90;;;;;;5047652;28;20060;-76
2023/11/11 10:58:19;;;;;;;0.00;0.00;;;12.40;99.90;;;;;;5055526;28;20060;-76
2023/11/11 11:00:49;;;;;;;0.00;0.00;;;12.90;99.90;;;;;;5056057;28;20033;-76
2023/11/11 11:03:19;;;;;;;0.00;0.00;;;12.90;99.90;;;;;;5056021;28;20020;-75
2023/11/11 11:06:06;;;;;;;0.10;0.10;;;12.80;99.90;;;;;;5055760;28;20815;-76
2023/11/11 11:08:56;;;;;;;0.00;0.00;;;12.60;99.90;;;;;;5049037;28;20041;-76
2023/11/11 11:11:32;;;;;;;0.10;0.10;;;12.60;99.90;;;;;;5041353;28;20056;-76
2023/11/11 11:14:10;;;;;;;0.00;0.00;;;12.30;99.90;;;;;;5047283;28;20571;-75
2023/11/11 11:16:38;;;;;;;0.10;0.10;;;12.50;99.90;;;;;;5045536;28;20037;-76
2023/11/11 11:19:06;;;;;;;0.85;0.85;;;12.60;99.90;;;;;;5045747;28;20017;-76
2023/11/11 11:21:34;;;;;;;0.10;0.10;;;12.80;99.90;;;;;;5048239;28;20616;-76
2023/11/11 11:24:10;;;;;;;0.05;0.05;;;12.60;99.90;;;;;;5047123;28;20033;-76
2023/11/11 11:26:36;;;;;;;0.08;0.08;;;12.90;99.90;;;;;;5043820;28;20094;-76
2023/11/11 11:29:20;;;;;;;0.00;0.00;;;13.00;99.90;;;;;;5051694;28;20112;-76
2023/11/11 11:32:11;;;;;;;0.03;0.03;;;13.10;99.90;;;;;;5040272;28;20092;-76
2023/11/11 11:34:42;;;;;;;0.00;0.00;;;13.00;99.90;;;;;;5050869;28;20033;-76
2023/11/11 11:37:10;;;;;;;0.00;0.00;;;13.00;99.90;;;;;;5045553;28;20530;-76
2023/11/11 11:40:08;;;;;;;0.00;0.00;;;12.90;99.90;;;;;;5045689;28;20040;-76
2023/11/11 11:42:37;;;;;;;0.00;0.00;;;13.10;99.90;;;;;;5041691;28;20140;-76
2023/11/11 11:45:04;;;;;;;0.30;0.30;;;13.30;99.90;;;;;;5037571;28;20036;-76
2023/11/11 11:47:32;;;;;;;0.00;0.00;;;13.50;99.90;;;;;;5046603;28;20056;-76
2023/11/11 11:50:00;;;;;;;0.10;0.10;;;13.90;99.90;;;;;;5038303;28;20551;-76
2023/11/11 11:52:25;;;;;;;0.00;0.00;;;14.00;99.70;;;;;;5041715;28;20053;-75
2023/11/11 11:54:51;;;;;;;0.00;0.00;;;13.50;99.90;;;;;;5053068;28;20071;-76
2023/11/11 11:57:17;;;;;;;0.00;0.00;;;13.40;99.90;;;;;;5048447;28;20036;-76
2023/11/11 11:59:46;;;;;;;0.00;0.00;;;13.10;99.90;;;;;;5053220;28;20055;-76
2023/11/11 12:02:12;;;;;;;0.10;0.10;;;12.70;99.90;;;;;;5045373;28;20025;-76
2023/11/11 12:04:41;;;;;;;0.00;0.00;;;12.70;99.90;;;;;;5048266;28;20089;-76
2023/11/11 12:07:12;;;;;;;0.00;0.00;;;12.70;99.90;;;;;;5055757;28;20029;-76
2023/11/11 12:09:40;;;;;;;0.00;0.00;;;12.40;99.90;;;;;;5054887;28;20024;-76
2023/11/11 12:12:08;;;;;;;0.10;0.10;;;12.40;99.90;;;;;;5056106;28;20076;-76
2023/11/11 12:14:34;;;;;;;0.00;0.00;;;12.10;99.90;;;;;;5054507;28;20079;-76
2023/11/11 12:17:00;;;;;;;0.05;0.05;;;12.00;99.90;;;;;;5055047;28;20116;-76
2023/11/11 12:19:26;;;;;;;0.00;0.00;;;11.80;99.90;;;;;;5050722;28;20025;-76
2023/11/11 12:21:53;;;;;;;;;;;11.50;99.90;;;;;;5051354;28;20025;-76
2023/11/11 12:24:25;;;;;;;0.00;0.00;;;11.50;99.90;;;;;;5052628;28;19915;-76
2023/11/11 12:26:52;;;;;;;1.05;1.00;;;11.50;99.90;;;;;;5045914;28;20033;-76
2023/11/11 12:29:19;;;;;;;0.10;0.10;;;11.20;99.90;;;;;;5050625;28;20029;-76
2023/11/11 12:31:54;;;;;;;0.03;0.03;;;11.30;99.90;;;;;;5046224;28;20120;-76
2023/11/11 12:34:22;;;;;;;0.10;0.10;;;11.20;99.90;;;;;;5050990;28;20035;-76
2023/11/11 12:36:52;;;;;;;0.00;0.00;;;11.40;99.90;;;;;;5069253;28;20037;-75
2023/11/11 12:39:18;;;;;;;0.00;0.00;;;11.50;99.90;;;;;;5067115;28;20514;-76
2023/11/11 12:41:53;;;;;;;0.07;0.07;;;11.80;99.90;;;;;;5055697;28;20040;-76
2023/11/11 12:44:20;;;;;;;0.00;0.00;;;11.90;99.90;;;;;;5064249;28;20029;-76
2023/11/11 12:46:48;;;;;;;0.10;0.10;;;11.80;99.90;;;;;;5065740;28;20024;-75
2023/11/11 12:49:27;;;;;;;0.05;0.05;;;11.90;99.90;;;;;;5053564;28;20086;-76
2023/11/11 12:51:55;;;;;;;0.05;0.05;;;12.10;99.90;;;;;;5052158;28;20045;-76
2023/11/11 12:54:33;;;;;;;0.00;0.00;;;12.20;99.90;;;;;;5048304;28;20491;-76